McCracken, Kansas
Current Conditions -  °F | °C
As of 10:35 AM on Tuesday 21 Oct 2014 (Local Time) from KHYS Reporting Station
Broken Clouds Broken Clouds  
Wind Chill: 59°   Ceiling: 3800
Heat Index: 59°   Visibility: 10mi
Dew Point: 52°   Wind: 7mph
Humidity: 77%   Direction: 150°SSE
Pressure: 30.1"   Gusts: NA
Location:  38.58°N, 99.57°W
Report Text: KHYS 211535Z AUTO 15006KT 10SM BKN038 15/11 A3010 RMK AO1
Loading
Personal Weather Stations






























Interactive Weather Map
Tropical Storm Tracking
New forecast layout! Learn more

10-Day Weather Forecast

Advertisements
Track Severe Weather on mobile